createdAt,value
2019-05-11T00:01:47.289Z,96545.01
2019-05-11T00:04:16.946Z,96545.98
2019-05-11T00:06:46.643Z,96544.06
2019-05-11T00:09:16.280Z,96548.61
2019-05-11T00:11:45.906Z,96547.23
2019-05-11T00:14:15.540Z,96539.79
2019-05-11T00:16:45.224Z,96532.61
2019-05-11T00:19:14.865Z,96530.58
2019-05-11T00:21:44.475Z,96521.86
2019-05-11T00:24:14.067Z,96525.64
2019-05-11T00:26:43.676Z,96531.42
2019-05-11T00:29:13.315Z,96530.59
2019-05-11T00:31:42.960Z,96533.11
2019-05-11T00:34:12.603Z,96523.73
2019-05-11T00:36:42.305Z,96517.27
2019-05-11T00:39:11.896Z,96517.45
2019-05-11T00:41:41.484Z,96519.76
2019-05-11T00:44:11.177Z,96523.92
2019-05-11T00:46:40.799Z,96525.77
2019-05-11T00:49:10.555Z,96533.95
2019-05-11T00:51:40.188Z,96534.62
2019-05-11T00:54:09.802Z,96535.55
2019-05-11T00:56:39.433Z,96535.59
2019-05-11T00:59:20.919Z,96537.92
2019-05-11T01:01:40.440Z,96544.39
2019-05-11T01:04:10.075Z,96544.58
2019-05-11T01:06:39.650Z,96546.34
2019-05-11T01:09:09.257Z,96537.11
2019-05-11T01:11:38.927Z,96539.77
2019-05-11T01:14:08.647Z,96544.80
2019-05-11T01:16:38.238Z,96546.20
2019-05-11T01:19:07.878Z,96548.84
2019-05-11T01:21:37.468Z,96543.07
2019-05-11T01:24:07.230Z,96545.84
2019-05-11T01:26:37.006Z,96536.09
2019-05-11T01:29:06.765Z,96529.89
2019-05-11T01:31:36.349Z,96530.52
2019-05-11T01:34:06.041Z,96540.51
2019-05-11T01:36:35.748Z,96535.11
2019-05-11T01:39:07.984Z,96544.37
2019-05-11T01:41:37.567Z,96552.64
2019-05-11T01:44:07.334Z,96548.56
2019-05-11T01:46:36.929Z,96546.02
2019-05-11T01:49:06.650Z,96540.83
2019-05-11T01:51:36.238Z,96541.87
2019-05-11T01:54:05.848Z,96533.80
2019-05-11T01:56:35.468Z,96535.48
2019-05-11T01:59:05.182Z,96537.67
2019-05-11T02:01:34.792Z,96535.27
2019-05-11T02:04:04.480Z,96529.67
2019-05-11T02:06:34.106Z,96530.48
2019-05-11T02:09:04.970Z,96535.68
2019-05-11T02:11:34.632Z,96525.08
2019-05-11T02:14:04.865Z,96525.68
2019-05-11T02:16:34.498Z,96528.17
2019-05-11T02:19:04.283Z,96519.44
2019-05-11T02:21:33.941Z,96520.48
2019-05-11T02:24:03.570Z,96511.28
2019-05-11T02:26:33.196Z,96510.09
2019-05-11T02:29:02.786Z,96503.60
2019-05-11T02:31:32.444Z,96506.88
2019-05-11T02:34:02.119Z,96505.66
2019-05-11T02:36:31.753Z,96496.65
2019-05-11T02:39:01.337Z,96498.02
2019-05-11T02:41:36.823Z,96494.67
2019-05-11T02:44:05.582Z,96482.47
2019-05-11T02:46:35.296Z,96484.72
2019-05-11T02:49:05.005Z,96484.80
2019-05-11T02:51:35.210Z,96481.08
2019-05-11T02:54:06.237Z,96482.47
2019-05-11T02:56:35.822Z,96482.51
2019-05-11T02:59:05.716Z,96486.72
2019-05-11T03:01:35.304Z,96487.36
2019-05-11T03:04:04.936Z,96481.33
2019-05-11T03:06:34.582Z,96472.34
2019-05-11T03:09:06.205Z,96473.59
2019-05-11T03:11:54.004Z,96467.84
2019-05-11T03:14:07.376Z,96467.31
2019-05-11T03:16:36.966Z,96474.00
2019-05-11T03:19:06.591Z,96467.97
2019-05-11T03:21:36.230Z,96477.00
2019-05-11T03:24:05.921Z,96472.03
2019-05-11T03:26:35.548Z,96476.08
2019-05-11T03:29:05.284Z,96471.72
2019-05-11T03:31:34.867Z,96479.95
2019-05-11T03:34:04.498Z,96479.13
2019-05-11T03:36:34.084Z,96484.95
2019-05-11T03:39:05.641Z,96484.06
2019-05-11T03:41:35.288Z,96488.43
2019-05-11T03:44:04.930Z,96486.65
2019-05-11T03:46:34.555Z,96492.81
2019-05-11T03:49:04.146Z,96489.61
2019-05-11T03:51:33.773Z,96494.18
2019-05-11T03:54:03.350Z,96488.08
2019-05-11T03:56:32.984Z,96492.35
2019-05-11T03:59:02.586Z,96487.64
2019-05-11T04:01:32.240Z,96489.47
2019-05-11T04:04:01.863Z,96496.38
2019-05-11T04:06:31.450Z,96495.32
2019-05-11T04:09:01.076Z,96488.81
2019-05-11T04:11:30.666Z,96481.64
2019-05-11T04:14:00.294Z,96485.45
2019-05-11T04:16:29.914Z,96485.11
2019-05-11T04:18:59.545Z,96483.49
2019-05-11T04:21:29.138Z,96486.30
2019-05-11T04:23:58.787Z,96489.58
2019-05-11T04:26:28.369Z,96491.95
2019-05-11T04:28:57.997Z,96488.93
2019-05-11T04:31:27.623Z,96485.16
2019-05-11T04:33:57.227Z,96487.20
2019-05-11T04:36:26.820Z,96484.85
2019-05-11T04:38:56.443Z,96482.38
2019-05-11T04:41:26.072Z,96483.83
2019-05-11T04:43:55.726Z,96478.97
2019-05-11T04:46:25.351Z,96487.92
2019-05-11T04:48:54.942Z,96486.72
2019-05-11T04:51:24.570Z,96480.45
2019-05-11T04:53:54.261Z,96475.26
2019-05-11T04:56:23.868Z,96475.97
2019-05-11T04:58:53.468Z,96472.72
2019-05-11T05:01:23.104Z,96484.62
2019-05-11T05:03:54.283Z,96483.20
2019-05-11T05:06:24.729Z,96482.98
2019-05-11T05:08:58.102Z,96476.55
2019-05-11T05:11:30.727Z,96479.95
2019-05-11T05:14:01.862Z,96468.10
2019-05-11T05:16:31.381Z,96474.86
2019-05-11T05:18:59.790Z,96468.09
2019-05-11T05:21:29.414Z,96461.89
2019-05-11T05:23:59.107Z,96465.37
2019-05-11T05:26:28.715Z,96456.94
2019-05-11T05:28:58.311Z,96463.89
2019-05-11T05:31:27.948Z,96460.30
2019-05-11T05:34:01.222Z,96453.81
2019-05-11T05:36:28.870Z,96458.86
2019-05-11T05:38:58.500Z,96454.07
2019-05-11T05:41:28.098Z,96452.31
2019-05-11T05:43:57.737Z,96452.57
2019-05-11T05:46:27.338Z,96448.16
2019-05-11T05:48:56.973Z,96442.02
2019-05-11T05:51:26.573Z,96434.70
2019-05-11T05:53:56.208Z,96432.14
2019-05-11T05:56:25.853Z,96434.51
2019-05-11T05:58:55.567Z,96427.52
2019-05-11T06:01:25.159Z,96435.58
2019-05-11T06:03:54.755Z,96441.16
2019-05-11T06:06:24.424Z,96444.66
2019-05-11T06:08:54.019Z,96438.02
2019-05-11T06:11:23.615Z,96431.85
2019-05-11T06:13:53.282Z,96425.08
2019-05-11T06:16:22.885Z,96417.67
2019-05-11T06:18:52.557Z,96415.12
2019-05-11T06:21:22.115Z,96408.76
2019-05-11T06:23:51.809Z,96413.35
2019-05-11T06:26:21.441Z,96404.07
2019-05-11T06:28:51.033Z,96406.63
2019-05-11T06:31:20.670Z,96398.39
2019-05-11T06:33:50.263Z,96392.03
2019-05-11T06:36:19.926Z,96382.13
2019-05-11T06:38:49.668Z,96381.83
2019-05-11T06:41:19.262Z,96389.88
2019-05-11T06:44:01.265Z,96401.51
2019-05-11T06:46:20.218Z,96406.07
2019-05-11T06:48:49.845Z,96413.28
2019-05-11T06:51:19.447Z,96417.70
2019-05-11T06:53:49.125Z,96409.72
2019-05-11T06:56:18.762Z,96405.08
2019-05-11T06:58:48.390Z,96403.73
2019-05-11T07:01:17.984Z,96406.44
2019-05-11T07:03:47.610Z,96401.34
2019-05-11T07:06:17.246Z,96393.00
2019-05-11T07:08:46.842Z,96379.60
2019-05-11T07:11:16.516Z,96385.60
2019-05-11T07:13:46.111Z,96380.73
2019-05-11T07:16:15.705Z,96374.62
2019-05-11T07:18:45.338Z,96376.99
2019-05-11T07:21:14.932Z,96375.92
2019-05-11T07:23:44.658Z,96369.98
2019-05-11T07:26:14.280Z,96365.08
2019-05-11T07:28:43.940Z,96355.78
2019-05-11T07:31:13.572Z,96356.20
2019-05-11T07:33:43.261Z,96354.81
2019-05-11T07:36:13.159Z,96353.08
2019-05-11T07:38:42.764Z,96344.37
2019-05-11T07:41:12.401Z,96345.58
2019-05-11T07:43:42.101Z,96336.32
2019-05-11T07:46:11.735Z,96334.44
2019-05-11T07:48:41.362Z,96331.56
2019-05-11T07:51:10.996Z,96329.75
2019-05-11T07:53:40.594Z,96326.73
2019-05-11T07:56:10.233Z,96322.62
2019-05-11T07:58:39.825Z,96323.58
2019-05-11T08:01:09.451Z,96311.28
2019-05-11T08:03:39.096Z,96309.80
2019-05-11T08:06:09.013Z,96315.93
2019-05-11T08:08:38.890Z,96312.01
2019-05-11T08:11:08.525Z,96308.41
2019-05-11T08:13:38.853Z,96303.47
2019-05-11T08:16:08.623Z,96300.48
2019-05-11T08:18:38.843Z,96308.27
2019-05-11T08:21:08.957Z,96309.12
2019-05-11T08:23:38.705Z,96314.27
2019-05-11T08:26:08.560Z,96314.05
2019-05-11T08:28:38.342Z,96315.73
2019-05-11T08:31:08.229Z,96316.62
2019-05-11T08:33:38.914Z,96315.59
2019-05-11T08:36:08.666Z,96312.63
2019-05-11T08:38:38.384Z,96310.32
2019-05-11T08:41:08.278Z,96304.25
2019-05-11T08:43:38.873Z,96300.44
2019-05-11T08:46:08.578Z,96301.48
2019-05-11T08:48:38.958Z,96299.03
2019-05-11T08:51:08.600Z,96294.14
2019-05-11T08:53:38.844Z,96284.89
2019-05-11T08:56:12.736Z,96285.44
2019-05-11T08:58:39.940Z,96290.27
2019-05-11T09:01:09.570Z,96290.02
2019-05-11T09:03:39.163Z,96289.79
2019-05-11T09:06:08.795Z,96290.63
2019-05-11T09:08:38.935Z,96285.92
2019-05-11T09:11:08.697Z,96286.10
2019-05-11T09:13:39.370Z,96279.66
2019-05-11T09:16:09.099Z,96285.51
2019-05-11T09:18:38.744Z,96277.59
2019-05-11T09:21:08.524Z,96287.18
2019-05-11T09:23:40.817Z,96284.06
2019-05-11T09:26:09.576Z,96284.17
2019-05-11T09:28:39.215Z,96277.25
2019-05-11T09:31:08.811Z,96284.15
2019-05-11T09:33:38.733Z,96283.80
2019-05-11T09:36:08.757Z,96292.59
2019-05-11T09:38:38.589Z,96291.36
2019-05-11T09:41:12.030Z,96288.40
2019-05-11T09:43:39.608Z,96284.13
2019-05-11T09:46:09.208Z,96278.48
2019-05-11T09:48:38.975Z,96270.83
2019-05-11T09:51:09.236Z,96271.20
2019-05-11T09:53:39.005Z,96264.18
2019-05-11T09:56:08.593Z,96268.52
2019-05-11T09:58:38.796Z,96257.02
2019-05-11T10:01:08.994Z,96258.37
2019-05-11T10:03:38.916Z,96252.24
2019-05-11T10:06:08.571Z,96250.42
2019-05-11T10:08:38.288Z,96253.37
2019-05-11T10:11:08.554Z,96255.42
2019-05-11T10:13:38.586Z,96260.90
2019-05-11T10:16:10.645Z,96262.81
2019-05-11T10:18:41.515Z,96258.77
2019-05-11T10:21:11.151Z,96261.73
2019-05-11T10:23:42.572Z,96254.69
2019-05-11T10:26:12.362Z,96254.38
2019-05-11T10:28:42.110Z,96248.44
2019-05-11T10:31:11.748Z,96246.81
2019-05-11T10:33:41.426Z,96241.65
2019-05-11T10:36:11.116Z,96243.27
2019-05-11T10:38:40.844Z,96233.76
2019-05-11T10:41:10.618Z,96228.59
2019-05-11T10:43:40.255Z,96225.05
2019-05-11T10:46:19.611Z,96220.97
2019-05-11T10:48:41.205Z,96216.36
2019-05-11T10:51:10.801Z,96217.45
2019-05-11T10:53:40.447Z,96213.64
2019-05-11T10:56:10.048Z,96216.34
2019-05-11T10:58:39.678Z,96211.64
2019-05-11T11:01:09.382Z,96222.29
2019-05-11T11:03:38.974Z,96217.62
2019-05-11T11:06:08.651Z,96224.10
2019-05-11T11:08:38.478Z,96215.80
2019-05-11T11:11:08.307Z,96211.20
2019-05-11T11:13:38.690Z,96213.08
2019-05-11T11:16:08.563Z,96210.40
2019-05-11T11:18:38.334Z,96208.20
2019-05-11T11:21:08.727Z,96207.69
2019-05-11T11:23:38.605Z,96200.84
2019-05-11T11:26:08.421Z,96197.59
2019-05-11T11:28:38.484Z,96205.75
2019-05-11T11:31:08.091Z,96207.10
2019-05-11T11:33:38.234Z,96199.95
2019-05-11T11:36:08.579Z,96193.16
2019-05-11T11:38:38.386Z,96195.13
2019-05-11T11:41:08.034Z,96193.18
2019-05-11T11:43:37.880Z,96190.24
2019-05-11T11:46:08.470Z,96187.56
2019-05-11T11:48:38.519Z,96182.94
2019-05-11T11:51:08.340Z,96180.20
2019-05-11T11:53:38.442Z,96174.70
2019-05-11T11:56:08.540Z,96173.02
2019-05-11T11:58:38.400Z,96175.78
2019-05-11T12:01:08.439Z,96165.95
2019-05-11T12:03:38.153Z,96166.08
2019-05-11T12:06:08.743Z,96167.60
2019-05-11T12:08:38.890Z,96160.91
2019-05-11T12:11:08.854Z,96156.55
2019-05-11T12:13:38.540Z,96155.14
2019-05-11T12:16:08.294Z,96153.29
2019-05-11T12:18:38.200Z,96150.55
2019-05-11T12:21:08.142Z,96145.06
2019-05-11T12:23:38.296Z,96144.20
2019-05-11T12:26:08.613Z,96145.16
2019-05-11T12:28:38.364Z,96145.24
2019-05-11T12:31:08.694Z,96143.42
2019-05-11T12:33:38.712Z,96140.16
2019-05-11T12:36:08.417Z,96127.59
2019-05-11T12:38:38.322Z,96134.09
2019-05-11T12:41:08.793Z,96133.72
2019-05-11T12:43:38.842Z,96129.00
2019-05-11T12:46:08.653Z,96125.30
2019-05-11T12:48:38.331Z,96127.03
2019-05-11T12:51:08.168Z,96122.98
2019-05-11T12:53:38.538Z,96116.03
2019-05-11T12:56:08.457Z,96123.50
2019-05-11T12:58:39.570Z,96111.33
2019-05-11T13:01:09.371Z,96109.52
2019-05-11T13:03:39.006Z,96108.98
2019-05-11T13:06:08.680Z,96101.15
2019-05-11T13:08:38.859Z,96099.42
2019-05-11T13:11:09.020Z,96098.94
2019-05-11T13:13:38.612Z,96096.05
2019-05-11T13:16:08.811Z,96092.30
2019-05-11T13:18:38.633Z,96100.31
2019-05-11T13:21:08.246Z,96100.04
2019-05-11T13:23:38.376Z,96097.30
2019-05-11T13:26:08.748Z,96085.00
2019-05-11T13:28:38.569Z,96086.05
2019-05-11T13:31:08.425Z,96082.98
2019-05-11T13:33:38.563Z,96079.37
2019-05-11T13:36:09.105Z,96079.44
2019-05-11T13:38:39.695Z,96070.87
2019-05-11T13:41:09.326Z,96062.05
2019-05-11T13:43:38.970Z,96069.41
2019-05-11T13:46:08.824Z,96063.38
2019-05-11T13:48:38.748Z,96059.33
2019-05-11T13:51:08.798Z,96053.77
2019-05-11T13:53:38.570Z,96053.97
2019-05-11T13:56:08.305Z,96046.66
2019-05-11T13:58:38.274Z,96041.80
2019-05-11T14:01:08.233Z,96040.48
2019-05-11T14:03:37.895Z,96038.63
2019-05-11T14:06:08.714Z,96029.89
2019-05-11T14:08:38.563Z,96024.92
2019-05-11T14:11:08.694Z,96029.48
2019-05-11T14:13:38.740Z,96027.64
2019-05-11T14:16:08.572Z,96021.41
2019-05-11T14:18:38.782Z,96017.02
2019-05-11T14:21:08.425Z,96018.38
2019-05-11T14:23:38.778Z,96006.73
2019-05-11T14:26:08.638Z,96008.32
2019-05-11T14:28:38.314Z,96009.28
2019-05-11T14:31:08.342Z,96009.63
2019-05-11T14:33:38.521Z,96009.59
2019-05-11T14:36:08.749Z,96000.60
2019-05-11T14:38:38.583Z,96003.45
2019-05-11T14:41:08.285Z,96006.88
2019-05-11T14:43:38.494Z,96000.02
2019-05-11T14:46:08.707Z,95997.14
2019-05-11T14:48:39.236Z,96002.63
2019-05-11T14:51:09.010Z,95998.02
2019-05-11T14:53:38.666Z,95993.31
2019-05-11T14:56:08.484Z,95991.31
2019-05-11T14:58:38.633Z,95987.40
2019-05-11T15:01:08.980Z,95977.25
2019-05-11T15:03:38.684Z,95975.91
2019-05-11T15:06:08.433Z,95980.94
2019-05-11T15:08:38.696Z,95975.98
2019-05-11T15:11:08.458Z,95970.83
2019-05-11T15:13:38.375Z,95967.91
2019-05-11T15:16:08.263Z,95965.41
2019-05-11T15:18:39.513Z,95957.61
2019-05-11T15:21:09.364Z,95957.11
2019-05-11T15:23:39.001Z,95961.30
2019-05-11T15:26:10.049Z,95961.41
2019-05-11T15:28:39.807Z,95962.03
2019-05-11T15:31:09.456Z,95955.98
2019-05-11T15:33:39.161Z,95965.46
2019-05-11T15:36:08.787Z,95966.27
2019-05-11T15:38:38.479Z,95964.33
2019-05-11T15:41:08.464Z,95962.77
2019-05-11T15:43:38.720Z,95965.19
2019-05-11T15:46:08.599Z,95964.96
2019-05-11T15:48:53.515Z,95966.55
2019-05-11T15:51:09.555Z,95966.92
2019-05-11T15:53:39.151Z,95971.05
2019-05-11T15:56:08.795Z,95959.95
2019-05-11T15:58:38.395Z,95960.34
2019-05-11T16:01:08.113Z,95954.02
2019-05-11T16:03:37.734Z,95959.86
2019-05-11T16:06:07.973Z,95958.56
2019-05-11T16:08:37.801Z,95953.98
2019-05-11T16:11:08.329Z,95959.86
2019-05-11T16:13:38.207Z,95955.69
2019-05-11T16:16:07.800Z,95963.33
2019-05-11T16:18:37.431Z,95959.66
2019-05-11T16:21:07.654Z,95957.91
2019-05-11T16:23:38.937Z,95959.29
2019-05-11T16:26:09.382Z,95965.09
2019-05-11T16:28:39.014Z,95954.02
2019-05-11T16:31:09.332Z,95970.70
2019-05-11T16:33:39.158Z,95967.53
2019-05-11T16:36:09.212Z,95972.98
2019-05-11T16:38:38.989Z,95973.48
2019-05-11T16:41:09.188Z,95974.00
2019-05-11T16:43:38.996Z,95968.25
2019-05-11T16:46:08.854Z,95977.71
2019-05-11T16:48:38.558Z,95977.42
2019-05-11T16:51:08.775Z,95984.23
2019-05-11T16:53:39.136Z,95983.23
2019-05-11T16:56:08.779Z,95978.42
2019-05-11T16:58:41.092Z,95992.87
2019-05-11T17:01:09.704Z,95993.95
2019-05-11T17:03:39.367Z,95993.38
2019-05-11T17:06:08.967Z,96000.75
2019-05-11T17:08:38.679Z,96001.02
2019-05-11T17:11:08.437Z,96004.55
2019-05-11T17:13:38.207Z,96003.17
2019-05-11T17:16:08.663Z,96003.72
2019-05-11T17:18:38.754Z,95995.30
2019-05-11T17:21:08.362Z,95998.57
2019-05-11T17:23:38.579Z,95993.95
2019-05-11T17:26:08.915Z,96000.17
2019-05-11T17:28:38.814Z,95996.39
2019-05-11T17:31:08.413Z,95999.36
2019-05-11T17:33:38.613Z,95995.59
2019-05-11T17:36:08.661Z,96004.26
2019-05-11T17:38:39.052Z,96002.09
2019-05-11T17:41:08.802Z,96004.77
2019-05-11T17:43:38.775Z,96002.07
2019-05-11T17:46:08.530Z,96009.16
2019-05-11T17:48:38.823Z,96014.31
2019-05-11T17:51:20.600Z,96007.78
2019-05-11T17:53:39.979Z,96015.61
2019-05-11T17:56:09.579Z,96022.70
2019-05-11T17:58:39.219Z,96035.95
2019-05-11T18:01:09.422Z,96042.98
2019-05-11T18:03:39.258Z,96056.46
2019-05-11T18:06:08.850Z,96066.75
2019-05-11T18:08:38.478Z,96070.18
2019-05-11T18:11:08.444Z,96083.22
2019-05-11T18:13:39.023Z,96078.63
2019-05-11T18:16:08.825Z,96077.72
2019-05-11T18:18:38.471Z,96086.08
2019-05-11T18:21:08.574Z,96094.37
2019-05-11T18:23:38.822Z,96095.11
2019-05-11T18:26:08.918Z,96102.31
2019-05-11T18:28:38.695Z,96106.29
2019-05-11T18:31:08.290Z,96115.31
2019-05-11T18:33:38.206Z,96150.47
2019-05-11T18:36:08.147Z,96168.14
2019-05-11T18:38:38.169Z,96208.58
2019-05-11T18:41:07.910Z,96223.84
2019-05-11T18:43:37.843Z,96201.39
2019-05-11T18:46:08.504Z,96223.58
2019-05-11T18:48:38.348Z,96205.84
2019-05-11T18:51:08.643Z,96225.19
2019-05-11T18:53:38.554Z,96215.88
2019-05-11T18:56:08.817Z,96238.48
2019-05-11T18:58:38.592Z,96240.66
2019-05-11T19:01:08.224Z,96238.77
2019-05-11T19:03:38.478Z,96252.49
2019-05-11T19:06:08.905Z,96251.62
2019-05-11T19:08:38.776Z,96262.66
2019-05-11T19:11:09.181Z,96264.06
2019-05-11T19:13:38.947Z,96271.63
2019-05-11T19:16:08.777Z,96294.30
2019-05-11T19:18:39.207Z,96290.72
2019-05-11T19:21:09.978Z,96278.91
2019-05-11T19:23:39.578Z,96308.23
2019-05-11T19:26:09.207Z,96295.53
2019-05-11T19:28:38.802Z,96304.50
2019-05-11T19:31:11.292Z,96310.38
2019-05-11T19:33:39.750Z,96334.95
2019-05-11T19:36:09.454Z,96330.72
2019-05-11T19:38:39.061Z,96355.64
2019-05-11T19:41:08.694Z,96364.22
2019-05-11T19:43:38.324Z,96357.42
2019-05-11T19:46:08.894Z,96369.88
2019-05-11T19:48:38.733Z,96375.13
2019-05-11T19:51:11.761Z,96385.97
2019-05-11T19:53:39.667Z,96394.82
2019-05-11T19:56:09.302Z,96397.71
2019-05-11T19:58:38.902Z,96404.14
2019-05-11T20:01:08.830Z,96401.59
2019-05-11T20:03:38.501Z,96410.78
2019-05-11T20:06:08.737Z,96413.61
2019-05-11T20:08:38.771Z,96406.33
2019-05-11T20:11:08.470Z,96418.70
2019-05-11T20:13:38.819Z,96406.42
2019-05-11T20:16:08.598Z,96411.10
2019-05-11T20:18:38.231Z,96409.34
2019-05-11T20:21:16.668Z,96419.87
2019-05-11T20:23:39.279Z,96419.96
2019-05-11T20:26:09.049Z,96424.31
2019-05-11T20:28:38.663Z,96428.33
2019-05-11T20:31:08.301Z,96430.42
2019-05-11T20:33:38.580Z,96429.33
2019-05-11T20:36:08.791Z,96429.61
2019-05-11T20:38:38.568Z,96425.39
2019-05-11T20:41:08.468Z,96426.90
2019-05-11T20:43:38.263Z,96427.18
2019-05-11T20:46:08.305Z,96423.78
2019-05-11T20:48:38.323Z,96423.02
2019-05-11T20:51:08.212Z,96422.64
2019-05-11T20:53:38.806Z,96422.99
2019-05-11T20:56:08.717Z,96417.81
2019-05-11T20:58:40.146Z,96419.91
2019-05-11T21:01:09.742Z,96418.34
2019-05-11T21:03:39.334Z,96428.25
2019-05-11T21:06:09.038Z,96434.68
2019-05-11T21:08:38.726Z,96440.48
2019-05-11T21:11:08.762Z,96439.81
2019-05-11T21:13:38.642Z,96443.45
2019-05-11T21:16:08.707Z,96435.58
2019-05-11T21:18:38.408Z,96437.90
2019-05-11T21:21:08.015Z,96445.50
2019-05-11T21:23:40.493Z,96436.31
2019-05-11T21:26:09.978Z,96434.23
2019-05-11T21:28:39.775Z,96442.81
2019-05-11T21:31:09.406Z,96444.77
2019-05-11T21:33:39.014Z,96438.81
2019-05-11T21:36:08.900Z,96425.80
2019-05-11T21:38:38.740Z,96432.78
2019-05-11T21:41:08.803Z,96439.20
2019-05-11T21:43:38.547Z,96446.27
2019-05-11T21:46:08.359Z,96450.10
2019-05-11T21:48:38.608Z,96442.53
2019-05-11T21:51:08.770Z,96444.45
2019-05-11T21:53:38.643Z,96444.36
2019-05-11T21:56:08.332Z,96450.30
2019-05-11T21:58:37.946Z,96452.41
2019-05-11T22:01:07.994Z,96451.66
2019-05-11T22:03:38.276Z,96454.14
2019-05-11T22:06:08.606Z,96465.05
2019-05-11T22:08:38.435Z,96460.73
2019-05-11T22:11:08.714Z,96470.72
2019-05-11T22:13:38.414Z,96466.91
2019-05-11T22:16:08.717Z,96473.80
2019-05-11T22:18:38.629Z,96474.63
2019-05-11T22:21:08.652Z,96472.98
2019-05-11T22:23:38.639Z,96473.61
2019-05-11T22:26:08.376Z,96483.48
2019-05-11T22:28:38.962Z,96485.66
2019-05-11T22:31:09.023Z,96487.30
2019-05-11T22:33:38.673Z,96495.98
2019-05-11T22:36:08.256Z,96496.17
2019-05-11T22:38:38.669Z,96506.45
2019-05-11T22:41:09.146Z,96506.56
2019-05-11T22:43:38.995Z,96508.34
2019-05-11T22:46:08.742Z,96509.28
2019-05-11T22:48:38.342Z,96500.83
2019-05-11T22:51:08.119Z,96503.36
2019-05-11T22:53:44.789Z,96507.09
2019-05-11T22:56:09.172Z,96509.21
2019-05-11T22:58:38.781Z,96506.59
2019-05-11T23:01:08.628Z,96503.28
2019-05-11T23:03:38.434Z,96495.77
2019-05-11T23:06:08.664Z,96495.87
2019-05-11T23:08:38.555Z,96497.11
2019-05-11T23:11:10.473Z,96495.30
2019-05-11T23:13:39.710Z,96493.48
2019-05-11T23:16:09.318Z,96507.44
2019-05-11T23:18:39.042Z,96506.27
2019-05-11T23:21:08.799Z,96495.45
2019-05-11T23:23:38.658Z,96496.20
2019-05-11T23:26:08.628Z,96496.86
2019-05-11T23:28:38.358Z,96498.02
2019-05-11T23:31:09.003Z,96500.29
2019-05-11T23:33:38.668Z,96504.42
2019-05-11T23:36:08.263Z,96499.06
2019-05-11T23:38:38.721Z,96487.61
2019-05-11T23:41:08.409Z,96486.70
2019-05-11T23:43:38.517Z,96479.16
2019-05-11T23:46:08.381Z,96477.73
2019-05-11T23:48:38.623Z,96471.76
2019-05-11T23:51:08.848Z,96471.97
2019-05-11T23:53:38.829Z,96462.78
2019-05-11T23:56:08.515Z,96469.25
2019-05-11T23:58:39.129Z,96462.66
